createdAt,value
2022-09-20T00:01:34.228Z,99.90
2022-09-20T00:04:07.537Z,99.90
2022-09-20T00:06:36.477Z,99.90
2022-09-20T00:09:05.488Z,99.90
2022-09-20T00:11:35.708Z,99.90
2022-09-20T00:14:08.519Z,99.90
2022-09-20T00:16:39.079Z,99.90
2022-09-20T00:19:10.180Z,99.90
2022-09-20T00:21:38.587Z,99.90
2022-09-20T00:24:07.175Z,99.90
2022-09-20T00:26:35.542Z,99.90
2022-09-20T00:29:04.522Z,99.90
2022-09-20T00:31:33.223Z,99.90
2022-09-20T00:34:24.356Z,99.90
2022-09-20T00:36:54.063Z,99.90
2022-09-20T00:39:22.471Z,99.90
2022-09-20T00:41:50.841Z,99.90
2022-09-20T00:44:42.654Z,99.90
2022-09-20T00:47:17.843Z,99.90
2022-09-20T00:49:46.649Z,99.90
2022-09-20T00:52:17.864Z,99.90
2022-09-20T00:54:46.612Z,99.90
2022-09-20T00:57:15.130Z,99.90
2022-09-20T00:59:45.356Z,99.90
2022-09-20T01:02:17.573Z,99.90
2022-09-20T01:04:47.964Z,99.90
2022-09-20T01:07:22.335Z,99.90
2022-09-20T01:09:51.119Z,99.90
2022-09-20T01:12:23.116Z,99.90
2022-09-20T01:14:54.217Z,99.90
2022-09-20T01:17:26.307Z,99.90
2022-09-20T01:20:09.678Z,99.90
2022-09-20T01:22:51.523Z,99.90
2022-09-20T01:25:30.077Z,99.90
2022-09-20T01:27:59.945Z,99.90
2022-09-20T01:30:36.264Z,99.90
2022-09-20T01:33:13.636Z,99.90
2022-09-20T01:35:45.695Z,99.90
2022-09-20T01:38:28.181Z,99.90
2022-09-20T01:41:04.489Z,99.90
2022-09-20T01:43:37.750Z,99.90
2022-09-20T01:46:17.370Z,99.90
2022-09-20T01:48:46.116Z,99.90
2022-09-20T01:51:44.403Z,99.90
2022-09-20T01:54:50.660Z,99.90
2022-09-20T01:58:03.831Z,99.90
2022-09-20T02:00:46.638Z,99.90
2022-09-20T02:03:43.207Z,99.90
2022-09-20T02:06:42.908Z,99.90
2022-09-20T02:09:59.553Z,99.90
2022-09-20T02:12:45.646Z,99.90
2022-09-20T02:15:30.854Z,99.90
2022-09-20T02:18:10.861Z,99.90
2022-09-20T02:20:46.472Z,99.90
2022-09-20T02:23:29.257Z,99.90
2022-09-20T02:26:18.497Z,99.90
2022-09-20T02:28:56.175Z,99.90
2022-09-20T02:31:45.140Z,99.90
2022-09-20T02:34:55.539Z,99.90
2022-09-20T02:37:43.658Z,99.90
2022-09-20T02:40:26.106Z,99.90
2022-09-20T02:43:03.407Z,99.90
2022-09-20T02:45:37.896Z,99.90
2022-09-20T02:48:07.190Z,99.90
2022-09-20T02:50:46.878Z,99.90
2022-09-20T02:53:33.027Z,99.90
2022-09-20T02:56:10.468Z,99.90
2022-09-20T02:58:47.810Z,99.90
2022-09-20T03:01:27.016Z,99.90
2022-09-20T03:04:09.317Z,99.90
2022-09-20T03:06:44.977Z,99.90
2022-09-20T03:09:20.834Z,99.90
2022-09-20T03:11:58.651Z,99.90
2022-09-20T03:14:32.737Z,99.90
2022-09-20T03:17:15.381Z,99.90
2022-09-20T03:20:05.186Z,99.90
2022-09-20T03:22:48.221Z,99.90
2022-09-20T03:25:36.759Z,99.90
2022-09-20T03:28:17.787Z,99.90
2022-09-20T03:31:00.750Z,99.90
2022-09-20T03:33:41.483Z,99.90
2022-09-20T03:36:26.928Z,99.90
2022-09-20T03:39:12.472Z,99.90
2022-09-20T03:41:53.382Z,99.90
2022-09-20T03:45:07.315Z,99.90
2022-09-20T03:48:07.065Z,99.90
2022-09-20T03:50:48.917Z,99.90
2022-09-20T03:54:08.516Z,99.90
2022-09-20T03:57:00.562Z,99.90
2022-09-20T04:00:01.871Z,99.90
2022-09-20T04:02:45.136Z,99.90
2022-09-20T04:05:18.010Z,99.90
2022-09-20T04:08:00.353Z,99.90
2022-09-20T04:10:37.386Z,99.90
2022-09-20T04:13:20.431Z,99.90
2022-09-20T04:16:03.287Z,99.90
2022-09-20T04:18:37.807Z,99.90
2022-09-20T04:21:12.710Z,99.90
2022-09-20T04:23:49.593Z,99.90
2022-09-20T04:26:23.818Z,99.90
2022-09-20T04:29:02.088Z,99.90
2022-09-20T04:31:40.216Z,99.90
2022-09-20T04:34:16.375Z,99.90
2022-09-20T04:37:19.693Z,99.90
2022-09-20T04:39:56.745Z,99.90
2022-09-20T04:43:07.214Z,99.90
2022-09-20T04:46:12.370Z,99.90
2022-09-20T04:49:20.908Z,99.90
2022-09-20T04:52:28.494Z,99.90
2022-09-20T04:55:39.345Z,99.90
2022-09-20T04:58:50.905Z,99.90
2022-09-20T05:02:04.463Z,99.90
2022-09-20T05:05:09.241Z,99.90
2022-09-20T05:08:16.318Z,99.90
2022-09-20T05:11:25.853Z,99.90
2022-09-20T05:14:12.602Z,99.90
2022-09-20T05:17:07.859Z,99.90
2022-09-20T05:19:46.845Z,99.90
2022-09-20T05:22:55.004Z,99.90
2022-09-20T05:25:45.144Z,99.90
2022-09-20T05:28:25.280Z,99.90
2022-09-20T05:30:58.688Z,99.90
2022-09-20T05:33:33.783Z,99.90
2022-09-20T05:36:10.069Z,99.90
2022-09-20T05:38:48.784Z,99.90
2022-09-20T05:41:32.048Z,99.90
2022-09-20T05:44:10.144Z,99.90
2022-09-20T05:46:50.093Z,99.90
2022-09-20T05:49:34.613Z,99.90
2022-09-20T05:52:15.679Z,99.90
2022-09-20T05:55:17.376Z,99.90
2022-09-20T05:58:09.092Z,99.90
2022-09-20T06:00:46.705Z,99.90
2022-09-20T06:03:23.598Z,99.90
2022-09-20T06:06:00.291Z,99.90
2022-09-20T06:09:03.435Z,99.90
2022-09-20T06:12:05.503Z,99.90
2022-09-20T06:14:45.077Z,99.90
2022-09-20T06:17:26.344Z,99.90
2022-09-20T06:20:16.216Z,99.90
2022-09-20T06:22:47.349Z,99.90
2022-09-20T06:25:22.424Z,99.90
2022-09-20T06:27:54.825Z,99.90
2022-09-20T06:30:27.598Z,99.90
2022-09-20T06:33:02.743Z,99.90
2022-09-20T06:35:38.982Z,99.90
2022-09-20T06:38:41.185Z,99.90
2022-09-20T06:41:38.118Z,99.90
2022-09-20T06:44:07.249Z,99.90
2022-09-20T06:46:37.434Z,99.90
2022-09-20T06:49:09.773Z,99.90
2022-09-20T06:51:40.223Z,99.90
2022-09-20T06:54:15.960Z,99.90
2022-09-20T06:56:46.999Z,99.90
2022-09-20T06:59:15.809Z,99.90
2022-09-20T07:01:45.077Z,99.90
2022-09-20T07:04:15.087Z,99.90
2022-09-20T07:06:43.727Z,99.90
2022-09-20T07:09:13.222Z,99.90
2022-09-20T07:11:43.242Z,99.90
2022-09-20T07:14:11.921Z,99.90
2022-09-20T07:16:40.668Z,99.90
2022-09-20T07:19:09.261Z,99.90
2022-09-20T07:21:39.414Z,99.90
2022-09-20T07:24:08.155Z,99.90
2022-09-20T07:26:37.199Z,99.90
2022-09-20T07:29:06.898Z,99.90
2022-09-20T07:31:35.523Z,99.90
2022-09-20T07:34:07.034Z,99.90
2022-09-20T07:36:35.717Z,99.90
2022-09-20T07:39:05.948Z,99.90
2022-09-20T07:41:34.493Z,99.90
2022-09-20T07:44:21.076Z,99.90
2022-09-20T07:46:50.379Z,99.90
2022-09-20T07:49:19.231Z,99.90
2022-09-20T07:51:47.943Z,99.90
2022-09-20T07:54:18.415Z,99.90
2022-09-20T07:56:47.798Z,99.90
2022-09-20T07:59:16.734Z,99.90
2022-09-20T08:01:45.651Z,99.90
2022-09-20T08:04:14.733Z,99.90
2022-09-20T08:06:44.767Z,1.00
2022-09-20T08:09:14.424Z,1.00
2022-09-20T08:11:45.523Z,1.00
2022-09-20T08:14:16.404Z,1.00
2022-09-20T08:16:47.502Z,1.00
2022-09-20T08:19:18.462Z,99.90
2022-09-20T08:21:47.185Z,99.90
2022-09-20T08:24:16.506Z,99.90
2022-09-20T08:26:46.611Z,99.90
2022-09-20T08:29:15.963Z,99.90
2022-09-20T08:31:44.984Z,99.90
2022-09-20T08:34:16.390Z,99.90
2022-09-20T08:36:47.220Z,99.90
2022-09-20T08:42:14.763Z,99.90
2022-09-20T08:45:00.480Z,99.90
2022-09-20T08:47:32.481Z,99.90
2022-09-20T08:50:09.196Z,99.90
2022-09-20T08:52:40.752Z,99.90
2022-09-20T08:55:17.585Z,99.90
2022-09-20T08:57:50.521Z,99.90
2022-09-20T09:00:20.567Z,99.90
2022-09-20T09:02:51.358Z,99.90
2022-09-20T09:05:35.356Z,99.90
2022-09-20T09:08:09.066Z,99.90
2022-09-20T09:10:43.079Z,99.90
2022-09-20T09:13:23.001Z,99.90
2022-09-20T09:16:07.974Z,99.90
2022-09-20T09:18:40.259Z,99.90
2022-09-20T09:21:10.527Z,99.90
2022-09-20T09:23:42.924Z,99.90
2022-09-20T09:26:21.360Z,99.90
2022-09-20T09:29:10.580Z,99.90
2022-09-20T09:31:39.879Z,99.90
2022-09-20T09:34:25.782Z,99.90
2022-09-20T09:36:55.687Z,99.90
2022-09-20T09:39:30.586Z,99.90
2022-09-20T09:42:01.434Z,99.90
2022-09-20T09:44:34.116Z,99.90
2022-09-20T09:47:03.619Z,99.90
2022-09-20T09:49:36.391Z,99.90
2022-09-20T09:52:14.601Z,99.90
2022-09-20T09:54:49.084Z,99.90
2022-09-20T09:57:35.874Z,96.00
2022-09-20T10:00:21.547Z,91.50
2022-09-20T10:03:29.522Z,82.50
2022-09-20T10:06:20.067Z,68.70
2022-09-20T10:09:10.582Z,62.50
2022-09-20T10:11:57.072Z,60.30
2022-09-20T10:14:37.290Z,55.60
2022-09-20T10:17:31.738Z,54.20
2022-09-20T10:20:16.695Z,53.30
2022-09-20T10:23:26.530Z,54.60
2022-09-20T10:25:51.404Z,55.30
2022-09-20T10:28:48.483Z,55.20
2022-09-20T10:31:34.096Z,54.90
2022-09-20T10:34:19.992Z,50.20
2022-09-20T10:36:53.301Z,51.90
2022-09-20T10:39:28.665Z,52.40
2022-09-20T10:42:25.900Z,53.00
2022-09-20T10:45:06.095Z,58.90
2022-09-20T10:47:38.808Z,71.80
2022-09-20T10:50:28.407Z,75.00
2022-09-20T10:53:09.270Z,78.50
2022-09-20T10:55:47.555Z,82.20
2022-09-20T10:58:46.861Z,78.50
2022-09-20T11:01:24.699Z,74.00
2022-09-20T11:04:08.521Z,71.80
2022-09-20T11:06:51.245Z,99.90
2022-09-20T11:09:24.450Z,99.90
2022-09-20T11:11:58.376Z,99.90
2022-09-20T11:14:34.613Z,1.00
2022-09-20T11:17:09.570Z,99.90
2022-09-20T11:19:48.552Z,1.00
2022-09-20T11:22:22.862Z,99.90
2022-09-20T11:24:54.348Z,99.90
2022-09-20T11:27:27.127Z,99.90
2022-09-20T11:30:02.815Z,99.90
2022-09-20T11:32:36.759Z,1.00
2022-09-20T11:35:15.998Z,30.40
2022-09-20T11:37:50.966Z,99.90
2022-09-20T11:40:26.543Z,1.00
2022-09-20T11:42:58.848Z,99.90
2022-09-20T11:45:28.781Z,99.90
2022-09-20T11:48:02.819Z,1.00
2022-09-20T11:50:57.298Z,99.90
2022-09-20T11:53:48.151Z,99.90
2022-09-20T11:56:21.377Z,99.90
2022-09-20T11:58:52.280Z,53.40
2022-09-20T12:01:29.421Z,1.00
2022-09-20T12:04:27.889Z,99.90
2022-09-20T12:07:02.473Z,1.00
2022-09-20T12:09:38.744Z,1.00
2022-09-20T12:12:24.616Z,99.90
2022-09-20T12:14:57.518Z,99.90
2022-09-20T12:18:08.296Z,99.90
2022-09-20T12:21:07.407Z,99.90
2022-09-20T12:23:47.182Z,99.90
2022-09-20T12:26:39.018Z,99.90
2022-09-20T12:29:55.426Z,99.90
2022-09-20T12:32:46.012Z,99.90
2022-09-20T12:35:57.129Z,99.90
2022-09-20T12:38:38.465Z,99.90
2022-09-20T12:41:14.335Z,99.90
2022-09-20T12:44:06.889Z,99.90
2022-09-20T12:46:39.777Z,99.90
2022-09-20T12:49:50.855Z,99.90
2022-09-20T12:52:57.229Z,99.90
2022-09-20T12:55:43.936Z,99.90
2022-09-20T12:58:25.824Z,99.90
2022-09-20T13:01:27.652Z,99.90
2022-09-20T13:04:36.352Z,97.90
2022-09-20T13:07:42.762Z,97.00
2022-09-20T13:10:35.850Z,97.30
2022-09-20T13:13:13.770Z,94.70
2022-09-20T13:15:48.898Z,99.30
2022-09-20T13:18:19.680Z,99.90
2022-09-20T13:20:51.686Z,99.90
2022-09-20T13:23:23.857Z,99.90
2022-09-20T13:25:53.090Z,99.90
2022-09-20T13:28:38.715Z,97.60
2022-09-20T13:31:30.983Z,90.60
2022-09-20T13:34:29.792Z,83.90
2022-09-20T13:37:00.788Z,91.20
2022-09-20T13:39:37.445Z,88.10
2022-09-20T13:42:19.877Z,92.50
2022-09-20T13:44:49.367Z,84.60
2022-09-20T13:47:26.083Z,82.80
2022-09-20T13:49:54.646Z,76.20
2022-09-20T13:52:29.501Z,79.90
2022-09-20T13:54:58.442Z,66.00
2022-09-20T13:57:29.894Z,59.50
2022-09-20T14:00:00.050Z,62.90
2022-09-20T14:02:31.909Z,51.90
2022-09-20T14:05:03.630Z,47.30
2022-09-20T14:07:36.878Z,47.10
2022-09-20T14:10:06.206Z,45.00
2022-09-20T14:12:36.116Z,47.80
2022-09-20T14:15:09.287Z,42.10
2022-09-20T14:17:38.357Z,39.70
2022-09-20T14:20:08.618Z,36.90
2022-09-20T14:22:38.856Z,37.10
2022-09-20T14:25:22.352Z,39.70
2022-09-20T14:28:05.300Z,39.40
2022-09-20T14:30:36.427Z,41.50
2022-09-20T14:33:08.006Z,40.20
2022-09-20T14:35:36.814Z,42.50
2022-09-20T14:38:11.711Z,42.20
2022-09-20T14:40:45.040Z,36.40
2022-09-20T14:43:27.103Z,36.20
2022-09-20T14:45:58.709Z,31.10
2022-09-20T14:48:36.796Z,35.20
2022-09-20T14:51:22.457Z,43.90
2022-09-20T14:53:53.942Z,39.40
2022-09-20T14:56:34.137Z,41.70
2022-09-20T14:59:05.657Z,44.20
2022-09-20T15:01:35.838Z,49.30
2022-09-20T15:04:17.633Z,53.30
2022-09-20T15:06:46.342Z,51.00
2022-09-20T15:09:16.900Z,50.70
2022-09-20T15:11:45.507Z,45.90
2022-09-20T15:14:14.224Z,41.10
2022-09-20T15:16:42.982Z,37.50
2022-09-20T15:19:11.695Z,38.60
2022-09-20T15:21:40.374Z,26.00
2022-09-20T15:24:08.901Z,20.20
2022-09-20T15:26:38.969Z,17.20
2022-09-20T15:29:08.057Z,18.40
2022-09-20T15:31:36.822Z,19.50
2022-09-20T15:34:07.561Z,21.10
2022-09-20T15:36:36.267Z,25.30
2022-09-20T15:39:05.086Z,30.30
2022-09-20T15:41:34.261Z,43.00
2022-09-20T15:44:04.857Z,56.70
2022-09-20T15:46:33.464Z,86.30
2022-09-20T15:49:03.836Z,98.00
2022-09-20T15:51:33.122Z,99.90
2022-09-20T15:54:06.354Z,99.90
2022-09-20T15:56:37.288Z,99.90
2022-09-20T15:59:09.142Z,99.90
2022-09-20T16:01:39.926Z,99.90
2022-09-20T16:04:10.203Z,99.90
2022-09-20T16:06:39.851Z,99.90
2022-09-20T16:09:09.064Z,99.90
2022-09-20T16:11:38.880Z,99.90
2022-09-20T16:14:09.245Z,99.90
2022-09-20T16:16:40.670Z,99.90
2022-09-20T16:19:20.241Z,99.90
2022-09-20T16:21:54.999Z,99.90
2022-09-20T16:24:27.080Z,99.90
2022-09-20T16:26:55.910Z,99.90
2022-09-20T16:29:27.039Z,99.90
2022-09-20T16:31:56.280Z,99.90
2022-09-20T16:34:30.101Z,99.90
2022-09-20T16:37:01.122Z,99.90
2022-09-20T16:39:31.343Z,99.90
2022-09-20T16:42:04.939Z,99.90
2022-09-20T16:44:36.993Z,99.90
2022-09-20T16:47:08.081Z,99.90
2022-09-20T16:49:36.936Z,99.90
2022-09-20T16:52:06.116Z,99.90
2022-09-20T16:54:35.048Z,99.90
2022-09-20T16:57:03.587Z,99.90
2022-09-20T16:59:32.150Z,99.90
2022-09-20T17:02:02.170Z,99.90
2022-09-20T17:04:30.850Z,99.90
2022-09-20T17:07:01.941Z,99.90
2022-09-20T17:09:30.605Z,99.90
2022-09-20T17:11:59.427Z,99.90
2022-09-20T17:14:28.092Z,1.00
2022-09-20T17:16:56.799Z,99.90
2022-09-20T17:19:27.170Z,99.90
2022-09-20T17:21:55.795Z,1.00
2022-09-20T17:24:25.228Z,99.90
2022-09-20T17:26:53.986Z,99.90
2022-09-20T17:29:23.416Z,99.90
2022-09-20T17:31:55.886Z,1.00
2022-09-20T17:34:28.223Z,99.90
2022-09-20T17:36:56.901Z,99.90
2022-09-20T17:39:25.892Z,99.90
2022-09-20T17:41:54.535Z,99.90
2022-09-20T17:44:24.119Z,90.50
2022-09-20T17:46:54.223Z,99.90
2022-09-20T17:49:24.251Z,99.90
2022-09-20T17:51:56.715Z,99.90
2022-09-20T17:54:26.363Z,1.00
2022-09-20T17:56:56.264Z,1.00
2022-09-20T17:59:25.825Z,1.00
2022-09-20T18:01:54.999Z,1.00
2022-09-20T18:04:24.641Z,1.00
2022-09-20T18:06:55.824Z,1.00
2022-09-20T18:09:27.313Z,1.00
2022-09-20T18:11:56.955Z,1.00
2022-09-20T18:14:27.719Z,99.90
2022-09-20T18:17:01.011Z,21.90
2022-09-20T18:19:33.233Z,54.50
2022-09-20T18:22:04.502Z,99.90
2022-09-20T18:24:33.520Z,99.90
2022-09-20T18:27:02.376Z,59.40
2022-09-20T18:29:36.688Z,99.90
2022-09-20T18:32:07.522Z,1.00
2022-09-20T18:34:36.189Z,99.90
2022-09-20T18:37:13.812Z,99.90
2022-09-20T18:39:43.308Z,99.90
2022-09-20T18:43:04.691Z,99.90
2022-09-20T18:45:33.553Z,99.90
2022-09-20T18:48:02.246Z,99.90
2022-09-20T18:50:30.847Z,99.90
2022-09-20T18:53:02.295Z,99.90
2022-09-20T18:55:31.378Z,99.90
2022-09-20T18:58:01.769Z,99.90
2022-09-20T19:00:31.101Z,99.90
2022-09-20T19:03:10.150Z,99.90
2022-09-20T19:05:41.269Z,99.90
2022-09-20T19:08:24.233Z,99.90
2022-09-20T19:10:55.895Z,99.90
2022-09-20T19:13:36.534Z,99.90
2022-09-20T19:16:18.690Z,99.90
2022-09-20T19:19:24.584Z,99.90
2022-09-20T19:22:00.073Z,99.90
2022-09-20T19:25:16.667Z,99.90
2022-09-20T19:27:46.023Z,99.90
2022-09-20T19:30:16.113Z,99.90
2022-09-20T19:32:45.345Z,99.90
2022-09-20T19:35:20.131Z,99.90
2022-09-20T19:38:04.766Z,99.90
2022-09-20T19:40:46.651Z,99.90
2022-09-20T19:43:35.099Z,99.90
2022-09-20T19:46:13.829Z,99.90
2022-09-20T19:48:48.464Z,99.90
2022-09-20T19:51:17.580Z,99.90
2022-09-20T19:53:46.830Z,99.90
2022-09-20T19:56:25.320Z,99.90
2022-09-20T19:58:56.395Z,99.90
2022-09-20T20:01:27.312Z,99.90
2022-09-20T20:03:57.039Z,99.90
2022-09-20T20:06:31.787Z,99.90
2022-09-20T20:09:09.321Z,99.90
2022-09-20T20:11:44.265Z,99.90
2022-09-20T20:14:22.630Z,99.90
2022-09-20T20:17:04.201Z,99.90
2022-09-20T20:19:56.015Z,99.90
2022-09-20T20:22:39.203Z,99.90
2022-09-20T20:25:20.805Z,99.90
2022-09-20T20:27:50.861Z,99.90
2022-09-20T20:30:19.565Z,99.90
2022-09-20T20:32:48.520Z,99.90
2022-09-20T20:35:17.476Z,99.90
2022-09-20T20:37:47.519Z,99.90
2022-09-20T20:40:16.362Z,99.90
2022-09-20T20:42:45.631Z,99.90
2022-09-20T20:45:15.798Z,99.90
2022-09-20T20:47:44.613Z,99.90
2022-09-20T20:50:13.325Z,99.90
2022-09-20T20:52:41.881Z,99.90
2022-09-20T20:55:10.806Z,99.90
2022-09-20T20:57:39.425Z,99.90
2022-09-20T21:00:09.681Z,99.90
2022-09-20T21:02:39.775Z,99.90
2022-09-20T21:05:09.190Z,99.90
2022-09-20T21:07:37.823Z,99.90
2022-09-20T21:10:08.356Z,99.90
2022-09-20T21:12:37.454Z,99.90
2022-09-20T21:15:07.397Z,99.90
2022-09-20T21:17:36.389Z,99.90
2022-09-20T21:20:06.994Z,99.90
2022-09-20T21:22:35.580Z,99.90
2022-09-20T21:25:12.938Z,99.90
2022-09-20T21:28:03.430Z,99.90
2022-09-20T21:30:35.977Z,99.90
2022-09-20T21:33:04.888Z,99.90
2022-09-20T21:35:34.953Z,99.90
2022-09-20T21:38:03.672Z,99.90
2022-09-20T21:40:32.321Z,99.90
2022-09-20T21:43:00.984Z,99.90
2022-09-20T21:45:29.707Z,99.90
2022-09-20T21:47:58.244Z,99.90
2022-09-20T21:50:26.889Z,99.90
2022-09-20T21:52:57.597Z,99.90
2022-09-20T21:55:26.809Z,99.90
2022-09-20T21:57:55.539Z,99.90
2022-09-20T22:00:26.367Z,99.90
2022-09-20T22:02:59.431Z,99.90
2022-09-20T22:05:28.109Z,99.90
2022-09-20T22:07:58.141Z,99.90
2022-09-20T22:10:26.867Z,99.90
2022-09-20T22:12:55.645Z,99.90
2022-09-20T22:15:24.607Z,99.90
2022-09-20T22:17:57.795Z,99.90
2022-09-20T22:21:02.399Z,99.90
2022-09-20T22:23:32.471Z,99.90
2022-09-20T22:26:02.466Z,99.90
2022-09-20T22:28:31.231Z,99.90
2022-09-20T22:31:08.713Z,99.90
2022-09-20T22:33:41.330Z,99.90
2022-09-20T22:36:10.709Z,99.90
2022-09-20T22:38:40.900Z,99.90
2022-09-20T22:41:09.772Z,99.90
2022-09-20T22:43:38.922Z,99.90
2022-09-20T22:46:09.365Z,99.90
2022-09-20T22:48:38.292Z,99.90
2022-09-20T22:51:09.333Z,99.90
2022-09-20T22:53:38.131Z,99.90
2022-09-20T22:56:11.517Z,99.90
2022-09-20T22:58:42.225Z,99.90
2022-09-20T23:01:12.919Z,99.90
2022-09-20T23:03:43.702Z,99.90
2022-09-20T23:06:16.831Z,99.90
2022-09-20T23:08:45.499Z,99.90
2022-09-20T23:11:16.538Z,99.90
2022-09-20T23:13:46.036Z,99.90
2022-09-20T23:16:16.075Z,99.90
2022-09-20T23:18:44.860Z,99.90
2022-09-20T23:21:16.654Z,99.90
2022-09-20T23:23:45.418Z,99.90
2022-09-20T23:26:17.267Z,99.90
2022-09-20T23:28:48.098Z,99.90
2022-09-20T23:31:18.053Z,99.90
2022-09-20T23:33:49.005Z,99.90
2022-09-20T23:36:18.674Z,99.90
2022-09-20T23:38:48.008Z,99.90
2022-09-20T23:41:20.173Z,99.90
2022-09-20T23:43:49.025Z,99.90
2022-09-20T23:46:19.322Z,99.90
2022-09-20T23:48:48.225Z,99.90
2022-09-20T23:51:18.802Z,99.90
2022-09-20T23:53:48.196Z,99.90
2022-09-20T23:56:18.798Z,99.90
2022-09-20T23:58:48.759Z,99.90
